Time;durP1;ratioP1;P1;durP2;ratioP2;P2;SDS_P1;SDS_P2;PMS_P1;PMS_P2;Temp;Humidity;BMP_temperature;BMP_pressure;BME280_temperature;BME280_humidity;BME280_pressure;Samples;Min_cycle;Max_cycle;Signal;HPM_P1;HPM_P2
2022/12/18 00:01:50;;;;;;;134.07;47.58;;;-2.50;99.90;;;;;;5070097;28;20408;-74
2022/12/18 00:04:22;;;;;;;124.30;47.87;;;-2.50;99.90;;;;;;5074537;28;20403;-74
2022/12/18 00:06:48;;;;;;;125.13;47.23;;;-2.50;99.90;;;;;;5071924;28;20906;-74
2022/12/18 00:09:13;;;;;;;119.47;44.50;;;-2.50;99.90;;;;;;5075909;28;20406;-74
2022/12/18 00:11:39;;;;;;;123.47;46.00;;;-2.50;99.90;;;;;;5067941;28;20925;-74
2022/12/18 00:14:05;;;;;;;121.57;46.10;;;-2.50;99.90;;;;;;5071854;28;20395;-74
2022/12/18 00:16:32;;;;;;;118.70;44.73;;;-2.50;99.90;;;;;;5075658;28;20511;-74
2022/12/18 00:18:59;;;;;;;122.13;44.97;;;-2.60;99.90;;;;;;5080161;28;21049;-74
2022/12/18 00:21:26;;;;;;;119.10;43.67;;;-2.60;99.90;;;;;;5082674;28;20412;-74
2022/12/18 00:23:52;;;;;;;112.45;43.05;;;-2.60;99.90;;;;;;5072732;28;20435;-74
2022/12/18 00:26:26;;;;;;;111.77;43.03;;;-2.60;99.90;;;;;;5097126;28;20401;-74
2022/12/18 00:28:52;;;;;;;123.10;44.22;;;-2.60;99.90;;;;;;5086971;28;20402;-74
2022/12/18 00:31:23;;;;;;;112.63;41.97;;;-2.60;99.90;;;;;;5086366;28;20395;-74
2022/12/18 00:33:49;;;;;;;112.97;42.67;;;-2.70;99.90;;;;;;5074152;28;20466;-74
2022/12/18 00:36:24;;;;;;;116.03;43.13;;;-2.70;99.90;;;;;;5087736;28;20571;-74
2022/12/18 00:38:50;;;;;;;116.95;42.38;;;-2.60;99.90;;;;;;5088437;28;20462;-74
2022/12/18 00:42:55;;;;;;;117.13;43.17;;;-2.70;99.90;;;;;;5091189;28;20477;-74
2022/12/18 00:44:04;;;;;;;114.43;42.33;;;-2.70;99.90;;;;;;5084102;28;21072;-74
2022/12/18 00:46:30;;;;;;;111.45;43.13;;;-2.70;99.90;;;;;;5086218;28;20406;-74
2022/12/18 00:48:56;;;;;;;102.10;40.33;;;-2.70;99.90;;;;;;5085035;28;20460;-74
2022/12/18 00:51:21;;;;;;;108.22;40.53;;;-2.70;99.90;;;;;;5085757;28;20398;-74
2022/12/18 00:53:47;;;;;;;104.88;40.85;;;-2.70;99.90;;;;;;5085722;28;20415;-74
2022/12/18 00:56:13;;;;;;;109.63;41.90;;;-2.70;99.90;;;;;;5084338;28;20423;-74
2022/12/18 00:58:38;;;;;;;106.07;39.35;;;-2.70;99.90;;;;;;5090106;28;20572;-74
2022/12/18 01:01:05;;;;;;;97.22;38.50;;;-2.70;99.90;;;;;;5089842;28;20398;-74
2022/12/18 01:03:30;;;;;;;96.05;36.88;;;-2.80;99.90;;;;;;5072419;28;20409;-74
2022/12/18 01:05:56;;;;;;;94.82;36.55;;;-2.80;99.90;;;;;;5090647;28;20402;-74
2022/12/18 01:08:22;;;;;;;92.50;37.33;;;-2.90;99.90;;;;;;5090597;28;20408;-73
2022/12/18 01:10:47;;;;;;;99.37;37.00;;;-2.90;99.90;;;;;;5090565;28;20452;-74
2022/12/18 01:13:13;;;;;;;94.83;37.97;;;-2.90;99.90;;;;;;5089406;28;20398;-74
2022/12/18 01:15:39;;;;;;;102.53;38.53;;;-2.90;99.90;;;;;;5088911;28;20514;-74
2022/12/18 01:18:06;;;;;;;93.20;36.38;;;-2.90;99.90;;;;;;5090494;28;20405;-74
2022/12/18 01:20:32;;;;;;;99.00;37.88;;;-2.90;99.90;;;;;;5090139;28;20437;-74
2022/12/18 01:22:58;;;;;;;104.75;38.92;;;-3.00;99.90;;;;;;5088649;28;20401;-74
2022/12/18 01:25:24;;;;;;;95.47;37.42;;;-3.00;99.90;;;;;;5089875;28;20492;-74
2022/12/18 01:27:49;;;;;;;97.67;38.33;;;-3.00;99.90;;;;;;5090260;28;20402;-74
2022/12/18 01:30:15;;;;;;;95.90;39.07;;;-3.00;99.90;;;;;;5090213;28;20808;-74
2022/12/18 01:32:41;;;;;;;100.30;39.28;;;-3.00;99.90;;;;;;5088762;28;20394;-74
2022/12/18 01:35:07;;;;;;;101.07;38.55;;;-3.00;99.90;;;;;;5074665;28;20453;-74
2022/12/18 01:37:32;;;;;;;103.40;40.63;;;-3.00;99.90;;;;;;5077155;28;20409;-74
2022/12/18 01:39:58;;;;;;;98.77;38.73;;;-3.00;99.90;;;;;;5089726;28;20402;-74
2022/12/18 01:42:25;;;;;;;98.63;38.73;;;-3.00;99.90;;;;;;5089795;28;20394;-74
2022/12/18 01:45:04;;;;;;;99.25;38.25;;;-3.00;99.90;;;;;;5086383;28;20407;-74
2022/12/18 01:47:49;;;;;;;95.05;38.22;;;-3.00;99.90;;;;;;5088645;28;20988;-74
2022/12/18 01:50:21;;;;;;;95.45;38.85;;;-3.00;99.90;;;;;;5088818;28;20433;-74
2022/12/18 01:52:51;;;;;;;98.87;37.43;;;-3.00;99.90;;;;;;5088315;28;20445;-74
2022/12/18 01:55:20;;;;;;;95.53;37.92;;;-3.10;99.90;;;;;;5088453;28;20437;-74
2022/12/18 01:57:47;;;;;;;97.40;38.08;;;-3.10;99.90;;;;;;5089283;28;20507;-74
2022/12/18 02:00:16;;;;;;;98.33;36.97;;;-3.20;99.90;;;;;;5089482;28;20531;-74
2022/12/18 02:02:44;;;;;;;92.93;37.22;;;-3.20;99.90;;;;;;5079908;28;20410;-73
2022/12/18 02:05:11;;;;;;;97.80;38.15;;;-3.30;99.90;;;;;;5071309;28;20412;-73
2022/12/18 02:07:55;;;;;;;103.05;38.92;;;-3.30;99.90;;;;;;5080410;28;20421;-73
2022/12/18 02:10:42;;;;;;;102.97;39.78;;;-3.30;99.90;;;;;;5082569;28;20423;-73
2022/12/18 02:13:24;;;;;;;113.50;41.20;;;-3.30;99.90;;;;;;5073630;28;20420;-73
2022/12/18 02:16:05;;;;;;;112.57;40.30;;;-3.30;99.90;;;;;;5085701;28;20468;-73
2022/12/18 02:18:40;;;;;;;112.55;42.00;;;-3.30;99.90;;;;;;5076033;28;20450;-73
2022/12/18 02:21:20;;;;;;;114.90;40.00;;;-3.30;99.90;;;;;;5074815;28;20412;-73
2022/12/18 02:24:04;;;;;;;113.70;41.78;;;-3.30;99.90;;;;;;5084037;28;20408;-73
2022/12/18 02:26:40;;;;;;;107.85;40.20;;;-3.30;99.90;;;;;;5087732;28;20549;-73
2022/12/18 02:29:11;;;;;;;103.22;39.55;;;-3.30;99.90;;;;;;5086582;28;20402;-74
2022/12/18 02:31:47;;;;;;;104.70;38.95;;;-3.30;99.90;;;;;;5079627;28;20483;-73
2022/12/18 02:34:14;;;;;;;104.32;38.60;;;-3.30;99.90;;;;;;5087642;28;20434;-73
2022/12/18 02:36:43;;;;;;;110.63;40.13;;;-3.40;99.90;;;;;;5084757;28;20427;-73
2022/12/18 02:39:11;;;;;;;106.85;39.08;;;-3.40;99.90;;;;;;5076651;28;21098;-73
2022/12/18 02:41:38;;;;;;;104.45;39.20;;;-3.40;99.90;;;;;;5087258;28;21211;-73
2022/12/18 02:44:09;;;;;;;108.63;39.83;;;-3.50;99.90;;;;;;5088794;28;20433;-73
2022/12/18 02:46:41;;;;;;;105.28;38.92;;;-3.50;99.90;;;;;;5087535;28;20919;-73
2022/12/18 02:49:34;;;;;;;102.32;38.78;;;-3.50;99.90;;;;;;5088339;28;20406;-73
2022/12/18 02:52:22;;;;;;;105.93;40.47;;;-3.60;99.90;;;;;;5084065;28;20473;-73
2022/12/18 02:54:47;;;;;;;105.15;40.08;;;-3.60;99.90;;;;;;5068856;28;20410;-73
2022/12/18 02:57:40;;;;;;;112.20;41.58;;;-3.60;99.90;;;;;;5087570;28;20434;-74
2022/12/18 03:00:16;;;;;;;108.78;40.20;;;-3.60;99.90;;;;;;5079545;28;20420;-73
2022/12/18 03:03:14;;;;;;;118.25;42.97;;;-3.60;99.90;;;;;;5075712;28;20398;-73
2022/12/18 03:06:18;;;;;;;123.40;43.72;;;-3.50;99.90;;;;;;5049682;28;20417;-73
2022/12/18 03:08:48;;;;;;;121.07;44.47;;;-3.50;99.90;;;;;;5068482;28;20475;-73
2022/12/18 03:11:14;;;;;;;127.07;45.50;;;-3.50;99.90;;;;;;5079535;28;20395;-73
2022/12/18 03:13:51;;;;;;;130.30;45.83;;;-3.40;99.90;;;;;;5065561;28;20452;-73
2022/12/18 03:16:25;;;;;;;136.25;47.67;;;-3.40;99.90;;;;;;5082991;28;20432;-73
2022/12/18 03:18:57;;;;;;;133.80;46.63;;;-3.40;99.90;;;;;;5081587;28;20419;-73
2022/12/18 03:21:33;;;;;;;128.00;46.55;;;-3.40;99.90;;;;;;5080888;28;20448;-73
2022/12/18 03:24:00;;;;;;;125.53;47.47;;;-3.40;99.90;;;;;;5086511;28;20402;-73
2022/12/18 03:26:27;;;;;;;133.93;48.47;;;-3.40;99.90;;;;;;5086520;28;20417;-73
2022/12/18 03:29:00;;;;;;;131.20;47.95;;;-3.40;99.90;;;;;;5083354;28;20484;-73
2022/12/18 03:31:29;;;;;;;131.57;48.17;;;-3.50;99.90;;;;;;5083225;28;20746;-73
2022/12/18 03:33:58;;;;;;;124.83;46.50;;;-3.50;99.90;;;;;;5087856;28;20765;-73
2022/12/18 03:36:24;;;;;;;120.45;46.25;;;-3.60;99.90;;;;;;5083009;28;20430;-73
2022/12/18 03:38:50;;;;;;;124.05;46.60;;;-3.60;99.90;;;;;;5075608;28;20406;-72
2022/12/18 03:41:28;;;;;;;118.28;45.63;;;-3.60;99.90;;;;;;5086205;28;20467;-72
2022/12/18 03:44:11;;;;;;;118.97;45.72;;;-3.60;99.90;;;;;;5086512;28;20418;-73
2022/12/18 03:47:06;;;;;;;112.18;44.97;;;-3.70;99.90;;;;;;5062505;28;20426;-73
2022/12/18 03:49:57;;;;;;;110.35;44.35;;;-3.70;99.90;;;;;;5065634;28;20931;-73
2022/12/18 03:52:27;;;;;;;107.65;44.65;;;-3.70;99.90;;;;;;5071527;28;20435;-73
2022/12/18 03:54:56;;;;;;;110.05;43.40;;;-3.80;99.90;;;;;;5081299;28;20411;-73
2022/12/18 03:57:24;;;;;;;102.25;41.75;;;-3.80;99.90;;;;;;5071092;28;20489;-73
2022/12/18 03:59:55;;;;;;;105.73;43.63;;;-3.80;99.90;;;;;;5079926;28;20404;-72
2022/12/18 04:02:23;;;;;;;103.68;43.00;;;-3.80;99.90;;;;;;5083342;28;20409;-73
2022/12/18 04:04:57;;;;;;;98.82;42.42;;;-3.90;99.90;;;;;;5082791;28;20454;-73
2022/12/18 04:07:24;;;;;;;102.07;42.47;;;-3.90;99.90;;;;;;5080824;28;20419;-73
2022/12/18 04:09:52;;;;;;;95.87;41.30;;;-3.90;99.90;;;;;;5086365;28;21473;-73
2022/12/18 04:12:17;;;;;;;101.88;41.75;;;-4.00;99.90;;;;;;5087040;28;20440;-73
2022/12/18 04:14:43;;;;;;;106.20;43.17;;;-4.00;99.90;;;;;;5091107;28;20784;-73
2022/12/18 04:17:08;;;;;;;98.53;42.20;;;-4.00;99.90;;;;;;5089209;28;20842;-73
2022/12/18 04:19:34;;;;;;;102.23;41.57;;;-4.10;99.90;;;;;;5091003;28;20418;-73
2022/12/18 04:22:00;;;;;;;99.13;42.20;;;-4.10;99.90;;;;;;5090385;28;20414;-73
2022/12/18 04:24:25;;;;;;;103.73;42.67;;;-4.10;99.90;;;;;;5087923;28;20479;-73
2022/12/18 04:26:51;;;;;;;102.40;42.08;;;-4.10;99.90;;;;;;5086499;28;20419;-73
2022/12/18 04:29:16;;;;;;;105.43;43.42;;;-4.20;99.90;;;;;;5076439;28;20410;-72
2022/12/18 04:31:42;;;;;;;104.57;42.83;;;-4.20;99.90;;;;;;5088266;28;20406;-73
2022/12/18 04:34:08;;;;;;;107.15;42.85;;;-4.30;99.90;;;;;;5085536;28;20422;-73
2022/12/18 04:36:33;;;;;;;101.18;42.80;;;-4.20;99.90;;;;;;5088216;28;20792;-73
2022/12/18 04:38:59;;;;;;;100.67;42.63;;;-4.30;99.90;;;;;;5090755;28;20518;-73
2022/12/18 04:41:24;;;;;;;101.65;41.72;;;-4.30;99.90;;;;;;5090183;28;20390;-73
2022/12/18 04:43:50;;;;;;;101.30;41.40;;;-4.30;99.90;;;;;;5082379;28;20407;-73
2022/12/18 04:46:16;;;;;;;96.00;42.47;;;-4.40;99.90;;;;;;5087623;28;20405;-73
2022/12/18 04:48:41;;;;;;;98.07;42.13;;;-4.30;99.90;;;;;;5090396;28;20887;-73
2022/12/18 04:51:07;;;;;;;101.13;40.97;;;-4.40;99.90;;;;;;5076586;28;20403;-73
2022/12/18 04:53:33;;;;;;;94.70;39.57;;;-4.40;99.90;;;;;;5088810;28;20616;-73
2022/12/18 04:56:07;;;;;;;87.70;39.37;;;-4.40;99.90;;;;;;5088656;28;20441;-73
2022/12/18 04:58:32;;;;;;;82.53;37.30;;;-4.40;99.90;;;;;;5088986;28;20769;-73
2022/12/18 05:00:58;;;;;;;85.57;38.08;;;-4.40;99.90;;;;;;5090351;28;20466;-73
2022/12/18 05:03:24;;;;;;;83.57;36.37;;;-4.50;99.90;;;;;;5082577;28;20529;-73
2022/12/18 05:05:50;;;;;;;74.80;36.00;;;-4.50;99.90;;;;;;5080461;28;20414;-73
2022/12/18 05:08:16;;;;;;;75.65;34.97;;;-4.50;99.90;;;;;;5090635;28;20916;-73
2022/12/18 05:10:42;;;;;;;74.75;34.35;;;-4.50;99.90;;;;;;5084412;28;20408;-73
2022/12/18 05:13:07;;;;;;;70.60;33.43;;;-4.50;99.90;;;;;;5071649;28;20502;-73
2022/12/18 05:15:33;;;;;;;69.85;33.47;;;-4.60;99.90;;;;;;5087460;28;20445;-73
2022/12/18 05:17:59;;;;;;;68.93;33.75;;;-4.50;99.90;;;;;;5084372;28;20443;-75
2022/12/18 05:20:26;;;;;;;62.60;31.25;;;-4.60;99.90;;;;;;5072970;28;20440;-74
2022/12/18 05:22:52;;;;;;;66.43;31.53;;;-4.60;99.90;;;;;;5068909;28;20406;-74
2022/12/18 05:25:18;;;;;;;63.75;30.58;;;-4.60;99.90;;;;;;5076980;28;20487;-74
2022/12/18 05:27:44;;;;;;;66.70;32.22;;;-4.60;99.90;;;;;;5076337;28;20461;-74
2022/12/18 05:30:11;;;;;;;60.83;30.85;;;-4.70;99.90;;;;;;5086439;28;20405;-74
2022/12/18 05:32:37;;;;;;;66.05;31.00;;;-4.70;99.90;;;;;;5088474;28;20768;-74
2022/12/18 05:35:03;;;;;;;63.08;31.48;;;-4.70;99.90;;;;;;5087342;28;20409;-74
2022/12/18 05:37:28;;;;;;;64.40;31.02;;;-4.70;99.90;;;;;;5076612;28;20429;-74
2022/12/18 05:39:54;;;;;;;60.53;29.53;;;-4.70;99.90;;;;;;5088482;28;20409;-74
2022/12/18 05:42:20;;;;;;;55.57;28.43;;;-4.70;99.90;;;;;;5087382;28;20410;-74
2022/12/18 05:44:45;;;;;;;57.70;28.65;;;-4.80;99.90;;;;;;5087835;28;20398;-74
2022/12/18 05:47:11;;;;;;;56.47;28.25;;;-4.80;99.90;;;;;;5087011;28;20405;-74
2022/12/18 05:49:36;;;;;;;57.00;28.57;;;-4.80;99.90;;;;;;5086784;28;20410;-74
2022/12/18 05:52:02;;;;;;;56.53;29.05;;;-4.80;99.90;;;;;;5087974;28;20769;-74
2022/12/18 05:54:28;;;;;;;57.63;28.73;;;-4.90;99.90;;;;;;5070525;28;20404;-74
2022/12/18 05:56:54;;;;;;;60.83;29.17;;;-4.90;99.90;;;;;;5077587;28;20431;-74
2022/12/18 05:59:19;;;;;;;56.55;28.90;;;-4.90;99.90;;;;;;5088488;28;20406;-74
2022/12/18 06:01:45;;;;;;;55.28;28.15;;;-4.90;99.90;;;;;;5088442;28;20398;-74
2022/12/18 06:04:11;;;;;;;53.38;26.98;;;-4.90;99.90;;;;;;5081310;28;20407;-74
2022/12/18 06:06:37;;;;;;;58.60;28.85;;;-4.90;99.90;;;;;;5077626;28;20408;-74
2022/12/18 06:09:08;;;;;;;57.35;28.02;;;-4.90;99.90;;;;;;5088492;28;20406;-74
2022/12/18 06:11:35;;;;;;;56.15;27.70;;;-4.90;99.90;;;;;;5087965;28;20459;-74
2022/12/18 06:14:01;;;;;;;52.50;27.13;;;-4.90;99.90;;;;;;5088241;28;20439;-74
2022/12/18 06:16:27;;;;;;;56.92;27.00;;;-4.90;99.90;;;;;;5025658;28;1762655;-74
2022/12/18 06:18:56;;;;;;;53.47;27.02;;;-5.00;99.90;;;;;;5096767;28;20404;-74
2022/12/18 06:21:21;;;;;;;57.83;27.70;;;-5.00;99.90;;;;;;5073892;28;20450;-74
2022/12/18 06:23:47;;;;;;;55.17;26.80;;;-5.00;99.90;;;;;;5088887;28;20430;-74
2022/12/18 06:26:13;;;;;;;57.10;28.20;;;-5.00;99.90;;;;;;5087692;28;20402;-74
2022/12/18 06:28:39;;;;;;;53.83;28.00;;;-5.00;99.90;;;;;;5087230;28;20508;-74
2022/12/18 06:31:05;;;;;;;59.30;27.73;;;-5.00;99.90;;;;;;5087463;28;20489;-74
2022/12/18 06:33:31;;;;;;;57.77;27.70;;;-5.00;99.90;;;;;;5076343;28;20834;-74
2022/12/18 06:36:05;;;;;;;52.05;27.20;;;-5.00;99.90;;;;;;5087864;28;20434;-74
2022/12/18 06:38:32;;;;;;;54.63;26.92;;;-5.00;99.90;;;;;;5088787;28;20407;-74
2022/12/18 06:40:57;;;;;;;55.30;26.67;;;-5.00;99.90;;;;;;5087324;28;20398;-74
2022/12/18 06:43:23;;;;;;;55.40;26.88;;;-5.10;99.90;;;;;;5069748;28;20901;-74
2022/12/18 06:45:52;;;;;;;50.50;25.08;;;-5.10;99.90;;;;;;5085121;28;21017;-74
2022/12/18 06:48:19;;;;;;;56.30;26.50;;;-5.10;99.90;;;;;;5088893;28;20484;-74
2022/12/18 06:50:45;;;;;;;50.92;25.08;;;-5.10;99.90;;;;;;5088836;28;20543;-74
2022/12/18 06:53:11;;;;;;;52.92;25.20;;;-5.10;99.90;;;;;;5088419;28;20484;-74
2022/12/18 06:55:37;;;;;;;49.80;24.65;;;-5.10;99.90;;;;;;5088149;28;20768;-74
2022/12/18 06:58:02;;;;;;;48.28;25.13;;;-5.20;99.90;;;;;;5088154;28;20489;-74
2022/12/18 07:00:28;;;;;;;45.90;23.70;;;-5.20;99.90;;;;;;5088385;28;20406;-75
2022/12/18 07:02:53;;;;;;;47.88;23.95;;;-5.20;99.90;;;;;;5088202;28;20455;-74
2022/12/18 07:05:19;;;;;;;43.47;23.33;;;-5.20;99.90;;;;;;5088389;28;20437;-74
2022/12/18 07:07:45;;;;;;;45.77;23.97;;;-5.20;99.90;;;;;;5088513;28;20419;-74
2022/12/18 07:10:10;;;;;;;45.53;24.13;;;-5.20;99.90;;;;;;5084555;28;20944;-74
2022/12/18 07:12:36;;;;;;;41.13;22.13;;;-5.20;99.90;;;;;;5087801;28;20402;-74
2022/12/18 07:15:02;;;;;;;42.40;23.20;;;-5.20;99.90;;;;;;5084145;28;20747;-74
2022/12/18 07:17:29;;;;;;;45.40;22.97;;;-5.20;99.90;;;;;;5087976;28;20913;-74
2022/12/18 07:19:55;;;;;;;44.60;23.13;;;-5.20;99.90;;;;;;5080120;28;20477;-74
2022/12/18 07:22:20;;;;;;;42.77;22.97;;;-5.20;99.90;;;;;;5084099;28;20484;-74
2022/12/18 07:24:49;;;;;;;43.72;23.23;;;-5.20;99.90;;;;;;5086421;28;20402;-74
2022/12/18 07:27:14;;;;;;;43.13;22.83;;;-5.20;99.90;;;;;;5077504;28;20411;-74
2022/12/18 07:29:40;;;;;;;44.23;23.13;;;-5.20;99.90;;;;;;5081710;28;20485;-74
2022/12/18 07:32:06;;;;;;;42.58;22.88;;;-5.20;99.90;;;;;;5078664;28;20479;-74
2022/12/18 07:34:32;;;;;;;40.40;22.35;;;-5.20;99.90;;;;;;5081961;28;20977;-74
2022/12/18 07:36:58;;;;;;;40.93;21.40;;;-5.20;99.90;;;;;;5087883;28;20518;-74
2022/12/18 07:39:23;;;;;;;40.25;22.65;;;-5.20;99.90;;;;;;5087450;28;20796;-74
2022/12/18 07:42:30;;;;;;;39.33;20.75;;;-5.20;99.90;;;;;;5087220;28;20959;-74
2022/12/18 07:44:35;;;;;;;36.30;20.90;;;-5.20;99.90;;;;;;5087622;28;20422;-74
2022/12/18 07:47:01;;;;;;;39.05;21.30;;;-5.20;99.90;;;;;;5087833;28;20452;-74
2022/12/18 07:49:27;;;;;;;40.10;21.00;;;-5.20;99.90;;;;;;5082808;28;20407;-74
2022/12/18 07:51:55;;;;;;;40.53;22.17;;;-5.20;99.90;;;;;;5078220;28;20409;-74
2022/12/18 07:54:22;;;;;;;39.63;21.13;;;-5.20;99.90;;;;;;5082591;28;20400;-74
2022/12/18 07:56:47;;;;;;;38.47;20.95;;;-5.20;99.90;;;;;;5080431;28;20945;-74
2022/12/18 07:59:13;;;;;;;37.07;20.23;;;-5.20;99.90;;;;;;5087574;28;20433;-74
2022/12/18 08:01:38;;;;;;;37.50;19.17;;;-5.20;99.90;;;;;;5087726;28;20796;-74
2022/12/18 08:04:04;;;;;;;34.27;19.60;;;-5.20;99.90;;;;;;5087711;28;20406;-74
2022/12/18 08:06:30;;;;;;;40.07;20.60;;;-5.20;99.90;;;;;;5069587;28;20447;-74
2022/12/18 08:08:56;;;;;;;34.63;19.98;;;-5.10;99.90;;;;;;5086617;28;20390;-74
2022/12/18 08:11:23;;;;;;;35.47;19.70;;;-5.10;99.90;;;;;;5086555;28;20402;-74
2022/12/18 08:13:49;;;;;;;37.63;20.73;;;-5.10;99.90;;;;;;5086687;28;20402;-75
2022/12/18 08:16:14;;;;;;;35.97;20.05;;;-5.10;99.90;;;;;;5085455;28;20479;-74
2022/12/18 08:18:40;;;;;;;37.38;20.38;;;-5.10;99.90;;;;;;5097997;28;20402;-74
2022/12/18 08:21:15;;;;;;;39.07;20.33;;;-5.10;99.90;;;;;;5087462;28;20974;-74
2022/12/18 08:23:42;;;;;;;37.25;20.10;;;-5.10;99.90;;;;;;5073382;28;20413;-75
2022/12/18 08:26:07;;;;;;;35.30;20.25;;;-5.10;99.90;;;;;;5081442;28;20439;-75
2022/12/18 08:28:33;;;;;;;38.88;20.58;;;-5.10;99.90;;;;;;5073672;28;20446;-74
2022/12/18 08:30:59;;;;;;;35.95;19.73;;;-5.10;99.90;;;;;;5074053;28;20520;-74
2022/12/18 08:33:26;;;;;;;36.90;20.35;;;-5.10;99.90;;;;;;5087267;28;20502;-75
2022/12/18 08:35:52;;;;;;;35.58;20.40;;;-5.10;99.90;;;;;;5086834;28;20510;-75
2022/12/18 08:38:17;;;;;;;34.58;19.88;;;-5.00;99.90;;;;;;5074005;28;20824;-74
2022/12/18 08:40:43;;;;;;;35.30;19.40;;;-5.00;99.90;;;;;;5085463;28;20402;-74
2022/12/18 08:45:57;;;;;;;36.35;20.10;;;-4.90;99.90;;;;;;5086810;28;20414;-74
2022/12/18 08:48:22;;;;;;;33.40;19.00;;;-4.90;99.90;;;;;;5086966;28;20401;-74
2022/12/18 08:50:55;;;;;;;34.67;20.08;;;-4.80;99.90;;;;;;5087669;28;20405;-75
2022/12/18 08:53:21;;;;;;;32.45;18.33;;;-4.80;99.90;;;;;;5103443;28;20995;-75
2022/12/18 08:55:46;;;;;;;31.40;17.60;;;-4.80;99.90;;;;;;5068823;28;20509;-74
2022/12/18 08:58:12;;;;;;;31.83;18.03;;;-4.70;99.90;;;;;;5096785;28;20399;-74
2022/12/18 09:00:37;;;;;;;33.03;17.90;;;-4.70;99.90;;;;;;5088616;28;20413;-75
2022/12/18 09:03:03;;;;;;;32.20;17.77;;;-4.60;99.90;;;;;;5080625;28;20438;-75
2022/12/18 09:05:30;;;;;;;30.73;17.67;;;-4.60;99.90;;;;;;5073308;28;20414;-75
2022/12/18 09:07:56;;;;;;;31.52;17.25;;;-4.50;99.90;;;;;;5084271;28;20418;-75
2022/12/18 09:10:21;;;;;;;30.67;17.65;;;-4.50;99.90;;;;;;5087069;28;20406;-75
2022/12/18 09:12:47;;;;;;;30.52;17.10;;;-4.40;99.90;;;;;;5075051;28;20396;-75
2022/12/18 09:15:13;;;;;;;27.57;16.33;;;-4.40;99.90;;;;;;5073998;28;20416;-75
2022/12/18 09:17:38;;;;;;;27.07;16.57;;;-4.30;99.90;;;;;;5072237;28;20865;-75
2022/12/18 09:20:05;;;;;;;28.80;16.60;;;-4.30;99.90;;;;;;5074982;28;20425;-75
2022/12/18 09:22:31;;;;;;;27.08;16.67;;;-4.20;99.90;;;;;;5076224;28;20460;-76
2022/12/18 09:24:56;;;;;;;26.53;15.63;;;-4.20;99.90;;;;;;5088048;28;20464;-76
2022/12/18 09:27:22;;;;;;;28.08;16.52;;;-4.20;99.90;;;;;;5080305;28;20967;-75
2022/12/18 09:29:47;;;;;;;27.92;16.38;;;-4.10;99.90;;;;;;5070015;28;20400;-74
2022/12/18 09:32:13;;;;;;;26.40;16.77;;;-4.00;99.90;;;;;;5074457;28;20414;-75
2022/12/18 09:34:39;;;;;;;28.48;16.20;;;-4.00;99.90;;;;;;5083808;28;20410;-76
2022/12/18 09:37:05;;;;;;;27.15;15.75;;;-3.90;99.90;;;;;;5076725;28;20485;-76
2022/12/18 09:39:30;;;;;;;27.58;15.57;;;-3.90;99.90;;;;;;5084029;28;20412;-76
2022/12/18 09:41:58;;;;;;;26.73;15.80;;;-3.80;99.90;;;;;;5083453;28;20811;-76
2022/12/18 09:44:34;;;;;;;24.55;15.10;;;-3.80;99.90;;;;;;5068100;28;20416;-76
2022/12/18 09:47:13;;;;;;;23.52;14.65;;;-3.70;99.90;;;;;;5084170;28;20427;-76
2022/12/18 09:49:48;;;;;;;24.40;14.80;;;-3.70;99.90;;;;;;5082881;28;21131;-76
2022/12/18 09:52:27;;;;;;;22.63;14.57;;;-3.60;99.90;;;;;;5088493;28;20410;-76
2022/12/18 09:55:14;;;;;;;24.27;14.40;;;-3.60;99.90;;;;;;5085722;28;20937;-76
2022/12/18 09:57:47;;;;;;;22.45;13.55;;;-3.50;99.90;;;;;;5080752;28;20438;-76
2022/12/18 10:00:20;;;;;;;24.42;14.40;;;-3.50;99.90;;;;;;5089588;28;20429;-76
2022/12/18 10:02:47;;;;;;;21.08;12.95;;;-3.50;99.90;;;;;;5076684;28;20414;-76
2022/12/18 10:05:24;;;;;;;19.55;12.32;;;-3.50;99.90;;;;;;5084876;28;20418;-76
2022/12/18 10:08:00;;;;;;;21.55;12.85;;;-3.40;99.90;;;;;;5089584;28;20909;-76
2022/12/18 10:10:33;;;;;;;20.48;12.05;;;-3.30;99.90;;;;;;5088311;28;20410;-76
2022/12/18 10:13:23;;;;;;;17.83;11.80;;;-3.30;99.90;;;;;;5087897;28;20422;-76
2022/12/18 10:15:52;;;;;;;18.67;11.25;;;-3.20;99.90;;;;;;5080942;28;20423;-76
2022/12/18 10:18:43;;;;;;;16.90;10.85;;;-3.10;99.90;;;;;;5063796;28;20484;-76
2022/12/18 10:21:23;;;;;;;16.93;10.80;;;-3.00;99.90;;;;;;5088206;28;20773;-76
2022/12/18 10:23:59;;;;;;;15.68;10.38;;;-3.00;99.90;;;;;;5089586;28;20398;-75
2022/12/18 10:26:25;;;;;;;15.97;10.03;;;-2.90;99.90;;;;;;5073719;28;20431;-75
2022/12/18 10:28:52;;;;;;;15.73;10.10;;;-2.90;99.90;;;;;;5088417;28;20434;-76
2022/12/18 10:31:21;;;;;;;15.52;9.50;;;-2.80;99.90;;;;;;5087068;28;20493;-73
2022/12/18 10:33:47;;;;;;;14.38;9.10;;;-2.70;99.90;;;;;;5079978;28;20415;-73
2022/12/18 10:36:12;;;;;;;14.53;9.37;;;-2.70;99.90;;;;;;5081546;28;20797;-73
2022/12/18 10:38:38;;;;;;;14.02;9.00;;;-2.60;99.90;;;;;;5088759;28;20409;-73
2022/12/18 10:41:21;;;;;;;13.68;8.48;;;-2.50;99.90;;;;;;5088205;28;20456;-73
2022/12/18 10:43:48;;;;;;;15.23;9.20;;;-2.40;99.90;;;;;;5088510;28;20402;-73
2022/12/18 10:46:20;;;;;;;12.93;8.88;;;-2.30;99.90;;;;;;5070537;28;20406;-73
2022/12/18 10:48:53;;;;;;;13.80;9.07;;;-2.00;99.90;;;;;;5084243;28;20408;-73
2022/12/18 10:51:23;;;;;;;13.38;9.30;;;-1.90;99.90;;;;;;5074588;28;20410;-73
2022/12/18 10:53:55;;;;;;;14.65;8.98;;;-1.80;99.90;;;;;;5088626;28;20545;-73
2022/12/18 10:56:21;;;;;;;13.32;8.68;;;-1.70;99.90;;;;;;5086828;28;20920;-74
2022/12/18 10:59:06;;;;;;;13.63;8.03;;;-1.60;99.90;;;;;;5088041;28;20402;-73
2022/12/18 11:01:50;;;;;;;12.73;8.35;;;-1.70;99.90;;;;;;5088747;28;20398;-74
2022/12/18 11:04:24;;;;;;;13.75;8.48;;;-1.60;99.90;;;;;;5087728;28;20857;-74
2022/12/18 11:07:00;;;;;;;12.60;8.17;;;-1.60;99.90;;;;;;5088372;28;20406;-74
2022/12/18 11:09:28;;;;;;;13.43;8.50;;;-1.60;99.90;;;;;;5085320;28;20497;-74
2022/12/18 11:12:00;;;;;;;11.98;8.18;;;-1.60;99.90;;;;;;5087779;28;20493;-74
2022/12/18 11:14:27;;;;;;;14.43;8.23;;;-1.50;99.90;;;;;;5083826;28;20842;-74
2022/12/18 11:16:55;;;;;;;14.43;8.32;;;-1.50;99.90;;;;;;5084202;28;20426;-74
2022/12/18 11:19:37;;;;;;;15.93;9.30;;;-1.50;99.90;;;;;;5087379;28;20438;-74
2022/12/18 11:22:26;;;;;;;13.50;8.90;;;-1.50;99.90;;;;;;5078657;28;20410;-74
2022/12/18 11:25:00;;;;;;;13.93;8.55;;;-1.60;99.90;;;;;;5087828;28;20424;-74
2022/12/18 11:27:28;;;;;;;14.43;9.13;;;-1.60;99.90;;;;;;5087846;28;20410;-74
2022/12/18 11:30:08;;;;;;;13.48;8.63;;;-1.60;99.90;;;;;;5087895;28;20406;-74
2022/12/18 11:32:44;;;;;;;12.90;8.65;;;-1.60;99.90;;;;;;5075359;28;20913;-74
2022/12/18 11:35:18;;;;;;;13.17;8.33;;;-1.60;99.90;;;;;;5081221;28;20514;-74
2022/12/18 11:37:50;;;;;;;13.13;8.07;;;-1.60;99.90;;;;;;5081419;28;20492;-74
2022/12/18 11:40:24;;;;;;;13.68;8.25;;;-1.60;99.90;;;;;;5088050;28;20417;-74
2022/12/18 11:43:10;;;;;;;12.82;8.15;;;-1.60;99.90;;;;;;5087204;28;20402;-74
2022/12/18 11:45:47;;;;;;;11.27;7.60;;;-1.50;99.90;;;;;;5087825;28;20402;-74
2022/12/18 11:48:22;;;;;;;11.55;7.63;;;-1.50;99.90;;;;;;5087397;28;20457;-74
2022/12/18 11:50:53;;;;;;;11.25;7.03;;;-1.50;99.90;;;;;;5086462;28;20543;-74
2022/12/18 11:53:20;;;;;;;11.23;7.15;;;-1.50;99.90;;;;;;5076042;28;20417;-74
2022/12/18 11:56:07;;;;;;;11.05;7.18;;;-1.40;99.90;;;;;;5085613;28;20409;-74
2022/12/18 11:58:51;;;;;;;11.30;7.15;;;-1.40;99.90;;;;;;5079164;28;20410;-74
2022/12/18 12:01:25;;;;;;;11.73;7.68;;;-1.30;99.90;;;;;;5069272;28;20418;-74
2022/12/18 12:04:06;;;;;;;10.98;7.32;;;-1.30;99.90;;;;;;5085657;28;20410;-74
2022/12/18 12:06:35;;;;;;;9.25;6.68;;;-1.30;99.90;;;;;;5078266;28;20978;-74
2022/12/18 12:09:33;;;;;;;10.97;7.00;;;-1.30;99.90;;;;;;5082157;28;20500;-74
2022/12/18 12:12:11;;;;;;;10.30;6.38;;;-1.30;99.90;;;;;;5082275;28;20446;-74
2022/12/18 12:14:45;;;;;;;11.80;7.37;;;-1.30;99.90;;;;;;5087720;28;21723;-74
2022/12/18 12:17:30;;;;;;;11.48;7.38;;;-1.30;99.90;;;;;;5065415;28;20439;-74
2022/12/18 12:20:11;;;;;;;10.23;6.78;;;-1.30;99.90;;;;;;5080438;28;20417;-74
2022/12/18 12:23:15;;;;;;;10.65;6.63;;;-1.30;99.90;;;;;;5072496;28;20420;-74
2022/12/18 12:26:01;;;;;;;11.38;7.40;;;-1.20;99.90;;;;;;5024801;28;20427;-74
2022/12/18 12:29:02;;;;;;;10.02;6.63;;;-1.20;99.90;;;;;;5024273;28;20470;-73
2022/12/18 12:31:43;;;;;;;10.63;6.97;;;-1.10;99.90;;;;;;5075599;28;20438;-74
2022/12/18 12:34:19;;;;;;;10.68;6.68;;;-1.10;99.90;;;;;;5087881;28;20868;-74
2022/12/18 12:37:23;;;;;;;10.93;7.03;;;-1.10;99.90;;;;;;5077334;28;20417;-74
2022/12/18 12:39:50;;;;;;;10.07;7.10;;;-1.10;99.90;;;;;;5077536;28;20417;-74
2022/12/18 12:45:28;;;;;;;12.68;7.32;;;-1.00;99.90;;;;;;5090886;28;20409;-74
2022/12/18 12:47:55;;;;;;;11.10;6.93;;;-1.00;99.90;;;;;;5090780;28;20413;-74